createdAt,value
2024-04-24T00:01:43.744Z,9.95
2024-04-24T00:04:13.723Z,9.91
2024-04-24T00:06:46.088Z,9.88
2024-04-24T00:09:16.095Z,9.90
2024-04-24T00:11:46.003Z,9.89
2024-04-24T00:14:15.961Z,9.87
2024-04-24T00:16:45.866Z,9.90
2024-04-24T00:19:15.623Z,9.87
2024-04-24T00:21:48.193Z,9.87
2024-04-24T00:24:18.525Z,9.87
2024-04-24T00:26:48.414Z,9.88
2024-04-24T00:29:18.417Z,9.88
2024-04-24T00:31:48.281Z,9.86
2024-04-24T00:34:18.047Z,9.84
2024-04-24T00:36:50.676Z,9.84
2024-04-24T00:39:20.421Z,9.81
2024-04-24T00:41:50.192Z,9.82
2024-04-24T00:44:20.147Z,9.80
2024-04-24T00:46:50.713Z,9.78
2024-04-24T00:49:21.424Z,9.77
2024-04-24T00:51:54.708Z,9.76
2024-04-24T00:54:26.364Z,9.77
2024-04-24T00:56:56.321Z,9.70
2024-04-24T00:59:26.867Z,9.70
2024-04-24T01:01:57.069Z,9.70
2024-04-24T01:04:27.215Z,9.67
2024-04-24T01:06:59.701Z,9.70
2024-04-24T01:09:29.507Z,9.68
2024-04-24T01:11:59.311Z,9.71
2024-04-24T01:14:29.213Z,9.70
2024-04-24T01:16:59.801Z,9.63
2024-04-24T01:19:47.846Z,9.66
2024-04-24T01:22:42.189Z,9.65
2024-04-24T01:25:18.770Z,9.62
2024-04-24T01:27:51.571Z,9.59
2024-04-24T01:30:21.572Z,9.59
2024-04-24T01:32:51.627Z,9.56
2024-04-24T01:35:21.534Z,9.57
2024-04-24T01:37:51.373Z,9.58
2024-04-24T01:40:21.212Z,9.55
2024-04-24T01:42:54.038Z,9.54
2024-04-24T01:45:23.904Z,9.54
2024-04-24T01:47:53.870Z,9.50
2024-04-24T01:50:23.896Z,9.50
2024-04-24T01:52:53.729Z,9.50
2024-04-24T01:55:23.539Z,9.47
2024-04-24T01:57:56.008Z,9.45
2024-04-24T02:00:25.810Z,9.44
2024-04-24T02:02:53.238Z,9.46
2024-04-24T02:05:23.344Z,9.44
2024-04-24T02:07:53.267Z,9.42
2024-04-24T02:10:23.110Z,9.39
2024-04-24T02:12:55.683Z,9.38
2024-04-24T02:15:25.555Z,9.40
2024-04-24T02:17:55.395Z,9.37
2024-04-24T02:20:25.278Z,9.34
2024-04-24T02:22:55.210Z,9.32
2024-04-24T02:25:38.025Z,9.34
2024-04-24T02:28:12.438Z,9.32
2024-04-24T02:30:42.266Z,9.27
2024-04-24T02:33:12.235Z,9.29
2024-04-24T02:35:42.180Z,9.27
2024-04-24T02:38:12.177Z,9.25
2024-04-24T02:40:42.212Z,9.28
2024-04-24T02:43:14.701Z,9.27
2024-04-24T02:45:44.635Z,9.26
2024-04-24T02:48:14.598Z,9.20
2024-04-24T02:50:41.848Z,9.17
2024-04-24T02:53:11.638Z,9.24
2024-04-24T02:55:41.450Z,9.19
2024-04-24T02:58:11.200Z,9.20
2024-04-24T03:00:43.600Z,9.09
2024-04-24T03:03:13.447Z,9.13
2024-04-24T03:05:43.264Z,9.14
2024-04-24T03:08:13.091Z,9.17
2024-04-24T03:10:42.849Z,9.16
2024-04-24T03:13:12.657Z,9.16
2024-04-24T03:15:45.068Z,9.16
2024-04-24T03:18:14.928Z,9.15
2024-04-24T03:20:44.816Z,9.13
2024-04-24T03:23:14.644Z,9.15
2024-04-24T03:25:44.505Z,9.15
2024-04-24T03:28:14.324Z,9.12
2024-04-24T03:30:46.840Z,9.17
2024-04-24T03:33:16.708Z,9.15
2024-04-24T03:35:46.589Z,9.14
2024-04-24T03:38:16.671Z,9.15
2024-04-24T03:40:46.576Z,9.16
2024-04-24T03:43:16.483Z,9.19
2024-04-24T03:45:48.961Z,9.15
2024-04-24T03:48:16.293Z,9.16
2024-04-24T03:50:46.113Z,9.14
2024-04-24T03:53:16.004Z,9.11
2024-04-24T03:55:45.842Z,9.12
2024-04-24T03:58:15.735Z,9.13
2024-04-24T04:00:48.559Z,9.13
2024-04-24T04:03:18.426Z,9.15
2024-04-24T04:05:48.204Z,9.12
2024-04-24T04:08:18.123Z,9.13
2024-04-24T04:10:47.962Z,9.14
2024-04-24T04:13:17.879Z,9.12
2024-04-24T04:15:50.228Z,9.14
2024-04-24T04:18:20.080Z,9.11
2024-04-24T04:20:49.908Z,9.12
2024-04-24T04:23:19.728Z,9.15
2024-04-24T04:25:49.544Z,9.16
2024-04-24T04:28:19.337Z,9.16
2024-04-24T04:30:54.961Z,9.21
2024-04-24T04:33:24.796Z,9.20
2024-04-24T04:35:54.774Z,9.22
2024-04-24T04:38:24.640Z,9.20
2024-04-24T04:40:54.579Z,9.23
2024-04-24T04:43:24.555Z,9.22
2024-04-24T04:45:56.998Z,9.23
2024-04-24T04:48:27.041Z,9.26
2024-04-24T04:50:56.938Z,9.26
2024-04-24T04:53:26.895Z,9.23
2024-04-24T04:55:56.699Z,9.24
2024-04-24T04:58:26.651Z,9.20
2024-04-24T05:00:59.146Z,9.20
2024-04-24T05:03:28.988Z,9.23
2024-04-24T05:06:00.506Z,9.22
2024-04-24T05:08:30.380Z,9.27
2024-04-24T05:11:00.439Z,9.24
2024-04-24T05:13:30.300Z,9.22
2024-04-24T05:16:03.154Z,9.25
2024-04-24T05:18:33.118Z,9.25
2024-04-24T05:21:03.168Z,9.25
2024-04-24T05:23:34.648Z,9.28
2024-04-24T05:26:27.003Z,9.31
2024-04-24T05:29:07.941Z,9.22
2024-04-24T05:31:41.298Z,9.26
2024-04-24T05:34:11.136Z,9.22
2024-04-24T05:36:41.028Z,9.25
2024-04-24T05:39:10.939Z,9.26
2024-04-24T05:41:40.748Z,9.27
2024-04-24T05:44:10.614Z,9.27
2024-04-24T05:46:43.219Z,9.28
2024-04-24T05:49:13.024Z,9.28
2024-04-24T05:51:43.058Z,9.31
2024-04-24T05:54:12.947Z,9.33
2024-04-24T05:56:42.695Z,9.35
2024-04-24T05:59:12.652Z,9.35
2024-04-24T06:01:45.047Z,9.35
2024-04-24T06:04:14.834Z,9.39
2024-04-24T06:06:44.603Z,9.43
2024-04-24T06:09:14.388Z,9.45
2024-04-24T06:11:44.275Z,9.46
2024-04-24T06:14:14.228Z,9.50
2024-04-24T06:16:46.661Z,9.53
2024-04-24T06:19:16.474Z,9.51
2024-04-24T06:21:46.281Z,9.49
2024-04-24T06:24:16.271Z,9.48
2024-04-24T06:26:46.630Z,9.49
2024-04-24T06:29:16.592Z,9.51
2024-04-24T06:31:49.179Z,9.55
2024-04-24T06:34:19.018Z,9.58
2024-04-24T06:36:49.480Z,9.55
2024-04-24T06:39:19.296Z,9.58
2024-04-24T06:41:49.386Z,9.61
2024-04-24T06:44:19.250Z,9.62
2024-04-24T06:46:51.753Z,9.63
2024-04-24T06:49:21.545Z,9.68
2024-04-24T06:51:52.065Z,9.72
2024-04-24T06:54:21.913Z,9.75
2024-04-24T06:56:51.729Z,9.76
2024-04-24T06:59:21.670Z,9.78
2024-04-24T07:01:54.279Z,9.80
2024-04-24T07:04:25.483Z,9.81
2024-04-24T07:06:55.269Z,9.81
2024-04-24T07:09:25.190Z,9.84
2024-04-24T07:11:55.239Z,9.84
2024-04-24T07:14:25.242Z,9.86
2024-04-24T07:16:57.736Z,9.90
2024-04-24T07:19:27.553Z,9.92
2024-04-24T07:21:57.304Z,9.93
2024-04-24T07:24:27.174Z,9.92
2024-04-24T07:26:56.973Z,9.91
2024-04-24T07:29:26.875Z,9.95
2024-04-24T07:31:59.610Z,9.92
2024-04-24T07:34:29.456Z,9.91
2024-04-24T07:36:59.314Z,9.93
2024-04-24T07:39:29.106Z,9.96
2024-04-24T07:41:58.859Z,9.99
2024-04-24T07:44:28.713Z,10.02
2024-04-24T07:47:04.192Z,9.97
2024-04-24T07:49:34.702Z,10.01
2024-04-24T07:52:05.246Z,10.05
2024-04-24T07:54:36.582Z,10.06
2024-04-24T07:57:06.622Z,10.01
2024-04-24T07:59:36.556Z,9.99
2024-04-24T08:02:09.335Z,10.00
2024-04-24T08:04:39.231Z,9.98
2024-04-24T08:07:09.055Z,10.00
2024-04-24T08:09:38.814Z,10.04
2024-04-24T08:12:10.518Z,10.00
2024-04-24T08:14:38.183Z,10.01
2024-04-24T08:17:10.816Z,10.03
2024-04-24T08:19:40.646Z,10.04
2024-04-24T08:22:10.595Z,10.08
2024-04-24T08:24:40.424Z,10.08
2024-04-24T08:27:10.214Z,10.11
2024-04-24T08:29:40.038Z,10.17
2024-04-24T08:32:12.683Z,10.24
2024-04-24T08:34:42.500Z,10.27
2024-04-24T08:37:12.369Z,10.35
2024-04-24T08:39:42.145Z,10.41
2024-04-24T08:42:12.945Z,10.42
2024-04-24T08:44:44.652Z,10.45
2024-04-24T08:47:20.103Z,10.45
2024-04-24T08:49:51.934Z,10.45
2024-04-24T08:52:25.616Z,10.43
2024-04-24T08:54:59.932Z,10.43
2024-04-24T08:57:31.456Z,10.34
2024-04-24T09:00:03.625Z,10.39
2024-04-24T09:02:42.172Z,10.35
2024-04-24T09:05:14.854Z,10.34
2024-04-24T09:07:46.073Z,10.32
2024-04-24T09:10:16.639Z,10.25
2024-04-24T09:12:48.317Z,10.22
2024-04-24T09:15:18.325Z,10.16
2024-04-24T09:17:50.976Z,10.17
2024-04-24T09:20:22.430Z,10.18
2024-04-24T09:22:52.306Z,10.14
2024-04-24T09:25:22.179Z,10.19
2024-04-24T09:27:52.255Z,10.20
2024-04-24T09:30:23.974Z,10.19
2024-04-24T09:32:57.555Z,10.16
2024-04-24T09:35:27.602Z,10.14
2024-04-24T09:37:57.632Z,10.08
2024-04-24T09:40:28.674Z,10.04
2024-04-24T09:42:58.780Z,10.07
2024-04-24T09:45:31.046Z,10.00
2024-04-24T09:48:03.586Z,9.98
2024-04-24T09:50:36.360Z,9.94
2024-04-24T09:53:06.473Z,9.96
2024-04-24T09:55:41.532Z,9.84
2024-04-24T09:58:12.068Z,9.74
2024-04-24T10:00:42.043Z,9.73
2024-04-24T10:03:15.735Z,9.66
2024-04-24T10:08:25.104Z,9.53
2024-04-24T10:10:58.895Z,9.52
2024-04-24T10:13:31.741Z,9.51
2024-04-24T10:16:05.907Z,9.41
2024-04-24T10:18:39.136Z,9.45
2024-04-24T10:21:10.460Z,9.37
2024-04-24T10:23:42.407Z,9.33
2024-04-24T10:26:13.129Z,9.39
2024-04-24T10:28:47.198Z,9.36
2024-04-24T10:31:18.654Z,9.33
2024-04-24T10:33:52.330Z,9.26
2024-04-24T10:36:22.376Z,9.22
2024-04-24T10:38:57.768Z,9.26
2024-04-24T10:41:28.326Z,9.22
2024-04-24T10:43:59.411Z,9.23
2024-04-24T10:46:29.713Z,9.16
2024-04-24T10:49:03.166Z,9.09
2024-04-24T10:51:34.659Z,9.08
2024-04-24T10:54:15.327Z,9.07
2024-04-24T10:56:46.356Z,9.09
2024-04-24T10:59:16.586Z,9.04
2024-04-24T11:01:53.263Z,9.04
2024-04-24T11:04:28.389Z,9.00
2024-04-24T11:06:58.734Z,8.93
2024-04-24T11:09:28.974Z,8.89
2024-04-24T11:12:00.763Z,8.87
2024-04-24T11:14:41.168Z,8.81
2024-04-24T11:17:11.626Z,8.86
2024-04-24T11:19:44.056Z,8.84
2024-04-24T11:22:13.900Z,8.81
2024-04-24T11:24:44.317Z,8.83
2024-04-24T11:27:14.388Z,8.82
2024-04-24T11:29:44.303Z,8.78
2024-04-24T11:32:15.013Z,8.77
2024-04-24T11:34:47.632Z,8.75
2024-04-24T11:37:17.992Z,8.77
2024-04-24T11:39:47.885Z,8.73
2024-04-24T11:42:17.778Z,8.81
2024-04-24T11:44:47.611Z,8.84
2024-04-24T11:47:20.502Z,8.81
2024-04-24T11:49:56.306Z,8.85
2024-04-24T11:52:27.425Z,8.88
2024-04-24T11:54:57.202Z,8.86
2024-04-24T11:57:27.014Z,8.80
2024-04-24T11:59:58.905Z,8.75
2024-04-24T12:02:30.011Z,8.70
2024-04-24T12:05:06.747Z,8.75
2024-04-24T12:07:37.251Z,8.81
2024-04-24T12:10:08.320Z,8.84
2024-04-24T12:12:38.295Z,8.75
2024-04-24T12:15:08.954Z,8.85
2024-04-24T12:17:38.759Z,8.97
2024-04-24T12:20:11.854Z,8.97
2024-04-24T12:22:41.843Z,9.00
2024-04-24T12:25:11.648Z,9.06
2024-04-24T12:27:41.515Z,9.04
2024-04-24T12:30:11.931Z,9.04
2024-04-24T12:32:41.905Z,9.06
2024-04-24T12:35:14.463Z,9.08
2024-04-24T12:37:44.258Z,9.13
2024-04-24T12:40:15.481Z,9.20
2024-04-24T12:42:45.342Z,9.19
2024-04-24T12:45:15.094Z,9.28
2024-04-24T12:47:46.641Z,9.39
2024-04-24T12:50:19.505Z,9.38
2024-04-24T12:52:49.461Z,9.34
2024-04-24T12:55:19.444Z,9.20
2024-04-24T12:57:49.302Z,9.13
2024-04-24T13:00:20.510Z,9.09
2024-04-24T13:02:51.072Z,9.09
2024-04-24T13:05:23.637Z,9.10
2024-04-24T13:07:53.463Z,9.11
2024-04-24T13:10:23.288Z,8.97
2024-04-24T13:12:53.023Z,8.94
2024-04-24T13:15:22.791Z,8.89
2024-04-24T13:17:52.718Z,8.80
2024-04-24T13:20:25.292Z,8.88
2024-04-24T13:22:55.099Z,8.89
2024-04-24T13:25:25.490Z,8.91
2024-04-24T13:27:55.322Z,8.91
2024-04-24T13:30:25.128Z,8.81
2024-04-24T13:32:55.024Z,8.81
2024-04-24T13:35:27.526Z,8.64
2024-04-24T13:37:57.484Z,8.69
2024-04-24T13:40:27.375Z,8.73
2024-04-24T13:42:57.165Z,8.66
2024-04-24T13:45:26.946Z,8.62
2024-04-24T13:47:56.897Z,8.62
2024-04-24T13:50:29.579Z,8.60
2024-04-24T13:52:59.466Z,8.56
2024-04-24T13:55:29.345Z,8.58
2024-04-24T13:57:59.210Z,8.59
2024-04-24T14:00:30.652Z,8.53
2024-04-24T14:03:01.526Z,8.46
2024-04-24T14:05:34.267Z,8.47
2024-04-24T14:08:04.182Z,8.56
2024-04-24T14:10:34.006Z,8.61
2024-04-24T14:13:03.780Z,8.48
2024-04-24T14:15:33.517Z,8.51
2024-04-24T14:18:03.520Z,8.59
2024-04-24T14:20:36.065Z,8.57
2024-04-24T14:23:06.059Z,8.60
2024-04-24T14:25:36.186Z,8.58
2024-04-24T14:28:06.184Z,8.60
2024-04-24T14:30:35.998Z,8.52
2024-04-24T14:33:05.946Z,8.43
2024-04-24T14:35:38.461Z,8.33
2024-04-24T14:38:10.271Z,8.33
2024-04-24T14:40:40.244Z,8.28
2024-04-24T14:43:10.124Z,8.29
2024-04-24T14:45:39.967Z,8.45
2024-04-24T14:48:10.709Z,8.57
2024-04-24T14:50:43.430Z,8.58
2024-04-24T14:53:13.697Z,8.61
2024-04-24T14:55:43.692Z,8.63
2024-04-24T14:58:32.104Z,8.63
2024-04-24T15:01:05.660Z,8.65
2024-04-24T15:03:35.840Z,8.67
2024-04-24T15:06:08.436Z,8.66
2024-04-24T15:08:38.315Z,8.63
2024-04-24T15:11:08.241Z,8.60
2024-04-24T15:13:39.716Z,8.48
2024-04-24T15:16:10.651Z,8.27
2024-04-24T15:18:40.540Z,8.26
2024-04-24T15:21:13.005Z,8.22
2024-04-24T15:23:42.761Z,8.17
2024-04-24T15:26:16.850Z,8.12
2024-04-24T15:28:46.777Z,8.09
2024-04-24T15:31:16.659Z,8.03
2024-04-24T15:33:46.954Z,8.03
2024-04-24T15:36:19.756Z,8.11
2024-04-24T15:38:49.646Z,8.08
2024-04-24T15:41:19.960Z,8.01
2024-04-24T15:43:49.748Z,7.91
2024-04-24T15:46:19.532Z,7.89
2024-04-24T15:48:49.512Z,7.77
2024-04-24T15:51:21.976Z,7.81
2024-04-24T15:53:51.809Z,7.93
2024-04-24T15:56:21.646Z,7.89
2024-04-24T15:58:52.638Z,7.83
2024-04-24T16:01:22.467Z,7.80
2024-04-24T16:03:52.350Z,7.78
2024-04-24T16:06:28.070Z,7.78
2024-04-24T16:08:57.857Z,7.80
2024-04-24T16:11:27.683Z,7.73
2024-04-24T16:13:57.598Z,7.73
2024-04-24T16:16:27.371Z,7.70
2024-04-24T16:18:57.509Z,7.71
2024-04-24T16:21:30.415Z,7.68
2024-04-24T16:24:00.338Z,7.66
2024-04-24T16:26:30.325Z,7.67
2024-04-24T16:29:00.487Z,7.72
2024-04-24T16:31:30.385Z,7.64
2024-04-24T16:34:00.391Z,7.60
2024-04-24T16:36:32.893Z,7.55
2024-04-24T16:39:02.837Z,7.59
2024-04-24T16:41:33.029Z,7.61
2024-04-24T16:44:04.413Z,7.63
2024-04-24T16:46:34.586Z,7.67
2024-04-24T16:49:04.855Z,7.69
2024-04-24T16:51:41.822Z,7.69
2024-04-24T16:54:12.112Z,7.72
2024-04-24T16:56:42.487Z,7.78
2024-04-24T16:59:12.501Z,7.77
2024-04-24T17:01:42.685Z,7.71
2024-04-24T17:04:13.239Z,7.70
2024-04-24T17:06:46.613Z,7.71
2024-04-24T17:09:18.115Z,7.70
2024-04-24T17:11:49.255Z,7.67
2024-04-24T17:14:19.930Z,7.66
2024-04-24T17:16:50.011Z,7.66
2024-04-24T17:19:21.208Z,7.60
2024-04-24T17:21:54.847Z,7.64
2024-04-24T17:24:26.426Z,7.60
2024-04-24T17:26:57.910Z,7.58
2024-04-24T17:29:29.546Z,7.62
2024-04-24T17:32:00.512Z,7.64
2024-04-24T17:34:30.817Z,7.58
2024-04-24T17:37:07.460Z,7.61
2024-04-24T17:39:38.876Z,7.61
2024-04-24T17:42:10.062Z,7.62
2024-04-24T17:44:40.883Z,7.61
2024-04-24T17:47:16.786Z,7.56
2024-04-24T17:49:48.667Z,7.58
2024-04-24T17:52:23.941Z,7.63
2024-04-24T17:54:56.854Z,7.59
2024-04-24T17:57:40.202Z,7.59
2024-04-24T18:00:12.170Z,7.56
2024-04-24T18:02:43.651Z,7.58
2024-04-24T18:05:15.108Z,7.55
2024-04-24T18:07:49.301Z,7.57
2024-04-24T18:10:21.836Z,7.57
2024-04-24T18:12:53.105Z,7.58
2024-04-24T18:15:24.948Z,7.64
2024-04-24T18:17:56.151Z,7.60
2024-04-24T18:20:27.847Z,7.57
2024-04-24T18:23:00.044Z,7.58
2024-04-24T18:25:34.055Z,7.56
2024-04-24T18:28:05.929Z,7.58
2024-04-24T18:30:42.946Z,7.60
2024-04-24T18:33:17.459Z,7.58
2024-04-24T18:35:50.316Z,7.57
2024-04-24T18:38:26.013Z,7.55
2024-04-24T18:40:58.010Z,7.57
2024-04-24T18:43:32.452Z,7.58
2024-04-24T18:46:03.281Z,7.57
2024-04-24T18:48:36.250Z,7.55
2024-04-24T18:51:12.529Z,7.53
2024-04-24T18:53:47.572Z,7.54
2024-04-24T18:56:20.660Z,7.50
2024-04-24T18:58:53.787Z,7.55
2024-04-24T19:01:24.891Z,7.56
2024-04-24T19:03:58.855Z,7.58
2024-04-24T19:06:35.495Z,7.51
2024-04-24T19:09:11.563Z,7.51
2024-04-24T19:11:45.481Z,7.52
2024-04-24T19:14:17.341Z,7.49
2024-04-24T19:16:49.738Z,7.52
2024-04-24T19:19:21.586Z,7.49
2024-04-24T19:21:53.886Z,7.44
2024-04-24T19:24:29.029Z,7.38
2024-04-24T19:27:00.894Z,7.41
2024-04-24T19:29:33.707Z,7.46
2024-04-24T19:32:05.614Z,7.40
2024-04-24T19:34:39.328Z,7.38
2024-04-24T19:37:10.327Z,7.40
2024-04-24T19:39:43.909Z,7.35
2024-04-24T19:42:16.472Z,7.31
2024-04-24T19:44:50.228Z,7.29
2024-04-24T19:47:22.668Z,7.33
2024-04-24T19:49:53.776Z,7.35
2024-04-24T19:52:25.750Z,7.35
2024-04-24T19:54:59.437Z,7.30
2024-04-24T19:57:31.818Z,7.32
2024-04-24T20:00:06.180Z,7.34
2024-04-24T20:02:40.625Z,7.34
2024-04-24T20:05:13.892Z,7.34
2024-04-24T20:07:49.344Z,7.30
2024-04-24T20:10:24.444Z,7.29
2024-04-24T20:12:58.334Z,7.26
2024-04-24T20:15:29.193Z,7.27
2024-04-24T20:18:00.817Z,7.30
2024-04-24T20:20:32.340Z,7.28
2024-04-24T20:23:04.476Z,7.29
2024-04-24T20:25:37.792Z,7.28
2024-04-24T20:28:08.864Z,7.25
2024-04-24T20:30:38.892Z,7.24
2024-04-24T20:33:10.940Z,7.22
2024-04-24T20:38:12.504Z,7.24
2024-04-24T20:40:45.008Z,7.21
2024-04-24T20:43:14.981Z,7.22
2024-04-24T20:45:44.878Z,7.22
2024-04-24T20:48:14.776Z,7.20
2024-04-24T20:50:44.770Z,7.19
2024-04-24T20:53:14.788Z,7.18
2024-04-24T20:55:47.169Z,7.17
2024-04-24T20:58:17.052Z,7.17
2024-04-24T21:00:46.947Z,7.17
2024-04-24T21:03:17.246Z,7.15
2024-04-24T21:05:47.129Z,7.16
2024-04-24T21:08:17.215Z,7.24
2024-04-24T21:10:49.893Z,7.29
2024-04-24T21:13:21.402Z,7.26
2024-04-24T21:15:53.408Z,7.20
2024-04-24T21:18:24.993Z,7.18
2024-04-24T21:20:55.172Z,7.16
2024-04-24T21:23:25.055Z,7.18
2024-04-24T21:26:02.114Z,7.17
2024-04-24T21:28:32.005Z,7.16
2024-04-24T21:31:04.398Z,7.12
2024-04-24T21:33:34.824Z,7.13
2024-04-24T21:36:04.967Z,7.10
2024-04-24T21:38:36.093Z,7.03
2024-04-24T21:41:20.765Z,7.03
2024-04-24T21:43:50.934Z,7.00
2024-04-24T21:46:21.418Z,6.99
2024-04-24T21:48:51.367Z,7.01
2024-04-24T21:51:21.223Z,7.05
2024-04-24T21:53:52.873Z,7.04
2024-04-24T21:56:26.913Z,7.02
2024-04-24T21:58:57.175Z,7.03
2024-04-24T22:01:26.951Z,7.02
2024-04-24T22:03:57.530Z,7.02
2024-04-24T22:06:29.165Z,7.00
2024-04-24T22:08:58.946Z,7.01
2024-04-24T22:11:31.490Z,6.99
2024-04-24T22:16:31.275Z,6.97
2024-04-24T22:19:01.975Z,6.96
2024-04-24T22:21:32.824Z,6.99
2024-04-24T22:24:02.743Z,6.92
2024-04-24T22:26:35.374Z,6.89
2024-04-24T22:29:05.180Z,6.83
2024-04-24T22:31:35.060Z,6.85
2024-04-24T22:34:04.830Z,6.84
2024-04-24T22:36:34.640Z,6.86
2024-04-24T22:39:04.452Z,6.86
2024-04-24T22:41:36.917Z,6.85
2024-04-24T22:44:06.907Z,6.84
2024-04-24T22:46:36.801Z,6.82
2024-04-24T22:49:06.562Z,6.83
2024-04-24T22:51:36.405Z,6.76
2024-04-24T22:54:06.227Z,6.74
2024-04-24T22:56:40.075Z,6.76
2024-04-24T22:59:09.928Z,6.74
2024-04-24T23:01:39.840Z,6.74
2024-04-24T23:04:10.566Z,6.77
2024-04-24T23:06:40.437Z,6.76
2024-04-24T23:09:10.224Z,6.74
2024-04-24T23:11:42.798Z,6.72
2024-04-24T23:14:12.970Z,6.75
2024-04-24T23:16:42.811Z,6.74
2024-04-24T23:19:10.085Z,6.75
2024-04-24T23:21:39.908Z,6.74
2024-04-24T23:24:10.056Z,6.74
2024-04-24T23:26:46.102Z,6.75
2024-04-24T23:29:16.111Z,6.76
2024-04-24T23:31:46.043Z,6.76
2024-04-24T23:34:15.840Z,6.70
2024-04-24T23:36:45.656Z,6.70
2024-04-24T23:39:15.674Z,6.65
2024-04-24T23:41:48.113Z,6.63
2024-04-24T23:44:17.912Z,6.63
2024-04-24T23:46:48.886Z,6.61
2024-04-24T23:49:18.919Z,6.60
2024-04-24T23:51:48.767Z,6.56
2024-04-24T23:54:18.610Z,6.58
2024-04-24T23:56:50.989Z,6.58
2024-04-24T23:59:20.780Z,6.56
